createdAt,value
2023-01-25T00:01:34.120Z,49.43
2023-01-25T00:04:00.756Z,50.47
2023-01-25T00:06:27.553Z,49.94
2023-01-25T00:08:54.152Z,49.98
2023-01-25T00:11:20.791Z,50.42
2023-01-25T00:13:47.406Z,49.70
2023-01-25T00:16:14.118Z,50.33
2023-01-25T00:18:40.771Z,49.36
2023-01-25T00:21:21.704Z,49.75
2023-01-25T00:23:48.488Z,49.56
2023-01-25T00:26:15.684Z,49.66
2023-01-25T00:28:42.516Z,49.57
2023-01-25T00:31:11.450Z,49.28
2023-01-25T00:33:37.937Z,49.77
2023-01-25T00:36:23.252Z,51.64
2023-01-25T00:38:49.989Z,49.53
2023-01-25T00:41:16.634Z,51.38
2023-01-25T00:43:43.295Z,51.51
2023-01-25T00:46:09.988Z,51.08
2023-01-25T00:48:36.723Z,51.13
2023-01-25T00:51:03.410Z,52.10
2023-01-25T00:53:30.173Z,51.93
2023-01-25T00:55:56.828Z,51.48
2023-01-25T00:58:23.580Z,52.47
2023-01-25T01:00:50.266Z,52.43
2023-01-25T01:03:16.912Z,52.84
2023-01-25T01:05:43.703Z,52.69
2023-01-25T01:08:10.545Z,53.19
2023-01-25T01:10:37.224Z,52.90
2023-01-25T01:13:03.932Z,52.95
2023-01-25T01:15:30.650Z,53.37
2023-01-25T01:17:57.355Z,52.80
2023-01-25T01:20:24.062Z,53.23
2023-01-25T01:22:52.584Z,53.53
2023-01-25T01:25:19.381Z,53.30
2023-01-25T01:27:46.018Z,53.34
2023-01-25T01:30:12.993Z,53.09
2023-01-25T01:32:39.724Z,53.18
2023-01-25T01:35:07.346Z,54.05
2023-01-25T01:37:34.159Z,54.08
2023-01-25T01:40:02.001Z,53.64
2023-01-25T01:42:28.615Z,53.38
2023-01-25T01:44:55.369Z,53.22
2023-01-25T01:47:22.659Z,53.22
2023-01-25T01:49:54.283Z,53.45
2023-01-25T01:52:23.719Z,52.47
2023-01-25T01:55:12.288Z,52.99
2023-01-25T01:57:47.488Z,53.46
2023-01-25T02:00:17.103Z,52.79
2023-01-25T02:02:43.877Z,53.49
2023-01-25T02:05:25.556Z,54.06
2023-01-25T02:07:52.261Z,53.85
2023-01-25T02:10:18.968Z,53.75
2023-01-25T02:12:45.797Z,54.51
2023-01-25T02:15:12.547Z,55.01
2023-01-25T02:17:39.498Z,54.52
2023-01-25T02:20:29.230Z,54.65
2023-01-25T02:23:24.136Z,55.23
2023-01-25T02:25:50.789Z,54.86
2023-01-25T02:28:23.486Z,54.62
2023-01-25T02:30:50.197Z,54.71
2023-01-25T02:33:16.870Z,54.30
2023-01-25T02:35:48.415Z,53.97
2023-01-25T02:38:16.108Z,53.82
2023-01-25T02:40:59.241Z,54.73
2023-01-25T02:43:28.352Z,54.42
2023-01-25T02:46:07.928Z,53.98
2023-01-25T02:48:34.617Z,53.29
2023-01-25T02:51:01.240Z,54.60
2023-01-25T02:53:27.874Z,55.54
2023-01-25T02:55:54.607Z,55.84
2023-01-25T02:58:21.202Z,55.46
2023-01-25T03:00:47.812Z,55.37
2023-01-25T03:03:14.573Z,55.20
2023-01-25T03:05:41.177Z,55.25
2023-01-25T03:08:07.911Z,55.16
2023-01-25T03:10:34.573Z,54.90
2023-01-25T03:13:01.207Z,55.72
2023-01-25T03:15:27.861Z,55.30
2023-01-25T03:17:55.904Z,55.01
2023-01-25T03:20:22.740Z,55.56
2023-01-25T03:22:49.398Z,55.19
2023-01-25T03:25:16.141Z,55.62
2023-01-25T03:27:42.780Z,55.00
2023-01-25T03:30:11.140Z,54.47
2023-01-25T03:32:37.759Z,53.81
2023-01-25T03:35:04.985Z,54.76
2023-01-25T03:37:31.663Z,55.53
2023-01-25T03:39:58.323Z,54.46
2023-01-25T03:42:24.948Z,54.33
2023-01-25T03:44:51.555Z,54.56
2023-01-25T03:47:18.283Z,54.43
2023-01-25T03:49:44.956Z,54.23
2023-01-25T03:52:11.706Z,54.82
2023-01-25T03:54:38.361Z,55.41
2023-01-25T03:57:05.016Z,54.21
2023-01-25T03:59:31.711Z,55.46
2023-01-25T04:01:58.367Z,54.48
2023-01-25T04:04:25.011Z,55.41
2023-01-25T04:06:51.671Z,54.43
2023-01-25T04:09:18.301Z,55.56
2023-01-25T04:11:44.908Z,55.20
2023-01-25T04:14:11.534Z,55.61
2023-01-25T04:16:38.210Z,55.26
2023-01-25T04:19:04.878Z,55.03
2023-01-25T04:21:33.776Z,55.12
2023-01-25T04:24:00.460Z,54.51
2023-01-25T04:26:27.097Z,54.48
2023-01-25T04:28:53.723Z,56.09
2023-01-25T04:31:20.494Z,55.82
2023-01-25T04:33:47.331Z,55.96
2023-01-25T04:36:14.244Z,55.99
2023-01-25T04:38:40.904Z,55.44
2023-01-25T04:41:07.617Z,55.46
2023-01-25T04:43:34.316Z,55.18
2023-01-25T04:46:02.362Z,55.89
2023-01-25T04:48:29.051Z,55.18
2023-01-25T04:50:55.703Z,56.06
2023-01-25T04:53:22.390Z,56.09
2023-01-25T04:55:49.277Z,56.62
2023-01-25T04:58:15.993Z,56.01
2023-01-25T05:00:42.617Z,56.11
2023-01-25T05:03:09.338Z,56.70
2023-01-25T05:05:35.991Z,57.14
2023-01-25T05:08:02.793Z,56.39
2023-01-25T05:10:29.413Z,56.34
2023-01-25T05:12:56.073Z,55.58
2023-01-25T05:15:23.655Z,55.92
2023-01-25T05:17:50.311Z,55.81
2023-01-25T05:20:16.983Z,56.00
2023-01-25T05:22:43.669Z,54.97
2023-01-25T05:25:10.716Z,55.67
2023-01-25T05:27:37.503Z,55.31
2023-01-25T05:30:04.505Z,54.77
2023-01-25T05:32:31.121Z,54.98
2023-01-25T05:34:59.886Z,55.46
2023-01-25T05:37:27.472Z,54.64
2023-01-25T05:39:54.184Z,54.39
2023-01-25T05:42:20.967Z,55.05
2023-01-25T05:44:48.147Z,53.71
2023-01-25T05:47:16.013Z,55.06
2023-01-25T05:49:42.674Z,55.36
2023-01-25T05:52:13.695Z,54.83
2023-01-25T05:54:40.317Z,54.51
2023-01-25T05:57:07.926Z,55.04
2023-01-25T05:59:34.532Z,54.72
2023-01-25T06:02:01.340Z,54.49
2023-01-25T06:04:28.009Z,54.42
2023-01-25T06:06:54.660Z,53.88
2023-01-25T06:09:21.296Z,54.35
2023-01-25T06:11:48.013Z,55.02
2023-01-25T06:14:14.690Z,55.13
2023-01-25T06:16:41.383Z,55.45
2023-01-25T06:19:08.160Z,55.40
2023-01-25T06:21:34.831Z,55.02
2023-01-25T06:24:01.542Z,55.41
2023-01-25T06:26:28.177Z,55.13
2023-01-25T06:28:54.802Z,55.85
2023-01-25T06:31:21.515Z,55.89
2023-01-25T06:33:49.449Z,54.53
2023-01-25T06:36:17.003Z,55.58
2023-01-25T06:38:43.640Z,55.69
2023-01-25T06:41:12.175Z,54.91
2023-01-25T06:43:39.029Z,55.03
2023-01-25T06:46:07.254Z,54.84
2023-01-25T06:48:34.007Z,55.41
2023-01-25T06:51:02.045Z,54.87
2023-01-25T06:53:30.479Z,54.64
2023-01-25T06:56:10.920Z,55.16
2023-01-25T06:58:38.445Z,54.64
2023-01-25T07:01:13.145Z,54.73
2023-01-25T07:03:39.847Z,55.61
2023-01-25T07:06:07.614Z,55.47
2023-01-25T07:08:34.400Z,55.98
2023-01-25T07:11:05.322Z,55.97
2023-01-25T07:13:32.277Z,55.86
2023-01-25T07:16:03.765Z,55.75
2023-01-25T07:18:30.826Z,55.73
2023-01-25T07:21:09.716Z,55.45
2023-01-25T07:23:36.314Z,56.03
2023-01-25T07:26:02.920Z,55.78
2023-01-25T07:28:30.617Z,55.63
2023-01-25T07:30:57.292Z,55.97
2023-01-25T07:33:23.935Z,55.07
2023-01-25T07:35:50.699Z,56.03
2023-01-25T07:38:17.379Z,55.64
2023-01-25T07:40:44.031Z,56.10
2023-01-25T07:43:10.733Z,56.65
2023-01-25T07:45:37.355Z,56.21
2023-01-25T07:48:08.277Z,56.51
2023-01-25T07:50:34.920Z,56.44
2023-01-25T07:53:01.546Z,55.71
2023-01-25T07:55:28.192Z,56.25
2023-01-25T07:57:54.896Z,56.50
2023-01-25T08:00:23.890Z,56.08
2023-01-25T08:02:51.131Z,55.61
2023-01-25T08:05:17.752Z,55.09
2023-01-25T08:07:44.449Z,55.38
2023-01-25T08:10:11.250Z,54.81
2023-01-25T08:12:37.849Z,55.60
2023-01-25T08:15:04.879Z,56.23
2023-01-25T08:17:31.492Z,54.69
2023-01-25T08:19:59.208Z,54.90
2023-01-25T08:22:25.998Z,53.49
2023-01-25T08:24:52.616Z,54.63
2023-01-25T08:27:19.267Z,53.87
2023-01-25T08:29:46.561Z,53.87
2023-01-25T08:32:13.153Z,53.76
2023-01-25T08:34:39.871Z,53.86
2023-01-25T08:37:06.553Z,53.74
2023-01-25T08:39:33.229Z,52.84
2023-01-25T08:41:59.915Z,52.62
2023-01-25T08:44:26.779Z,53.32
2023-01-25T08:46:53.467Z,53.15
2023-01-25T08:49:20.145Z,53.75
2023-01-25T08:51:46.764Z,53.35
2023-01-25T08:54:13.436Z,52.71
2023-01-25T08:56:40.432Z,50.40
2023-01-25T08:59:07.426Z,53.38
2023-01-25T09:01:34.160Z,51.17
2023-01-25T09:04:01.074Z,50.16
2023-01-25T09:06:27.804Z,49.76
2023-01-25T09:08:54.587Z,49.49
2023-01-25T09:11:22.229Z,49.79
2023-01-25T09:13:49.052Z,49.60
2023-01-25T09:16:20.283Z,49.66
2023-01-25T09:18:49.061Z,49.79
2023-01-25T09:21:17.144Z,48.39
2023-01-25T09:23:50.963Z,48.89
2023-01-25T09:26:24.451Z,48.88
2023-01-25T09:28:52.005Z,50.03
2023-01-25T09:31:22.329Z,49.24
2023-01-25T09:33:50.155Z,49.99
2023-01-25T09:36:16.797Z,49.45
2023-01-25T09:38:43.554Z,47.10
2023-01-25T09:41:58.156Z,46.74
2023-01-25T09:44:43.337Z,46.58
2023-01-25T09:47:31.179Z,47.23
2023-01-25T09:50:17.626Z,47.50
2023-01-25T09:53:04.419Z,46.69
2023-01-25T09:55:31.030Z,46.19
2023-01-25T09:57:57.906Z,45.96
2023-01-25T10:00:33.280Z,45.90
2023-01-25T10:03:13.855Z,45.33
2023-01-25T10:05:48.233Z,44.63
2023-01-25T10:08:57.000Z,44.14
2023-01-25T10:11:25.841Z,44.71
2023-01-25T10:13:52.454Z,46.11
2023-01-25T10:16:28.220Z,47.73
2023-01-25T10:19:26.080Z,46.61
2023-01-25T10:22:08.596Z,45.59
2023-01-25T10:24:51.011Z,45.68
2023-01-25T10:27:29.576Z,44.16
2023-01-25T10:29:57.059Z,44.46
2023-01-25T10:32:28.682Z,43.36
2023-01-25T10:34:57.479Z,43.66
2023-01-25T10:37:33.318Z,44.01
2023-01-25T10:40:14.574Z,43.72
2023-01-25T10:43:00.456Z,43.80
2023-01-25T10:45:27.116Z,43.42
2023-01-25T10:47:57.516Z,43.48
2023-01-25T10:50:39.175Z,43.26
2023-01-25T10:53:09.674Z,43.16
2023-01-25T10:55:36.334Z,42.86
2023-01-25T10:58:03.004Z,43.59
2023-01-25T11:00:36.434Z,43.77
2023-01-25T11:03:03.318Z,44.83
2023-01-25T11:05:38.979Z,44.82
2023-01-25T11:08:25.170Z,45.02
2023-01-25T11:10:52.374Z,44.57
2023-01-25T11:13:20.848Z,43.70
2023-01-25T11:16:13.448Z,45.50
2023-01-25T11:18:40.116Z,46.16
2023-01-25T11:21:13.057Z,45.75
2023-01-25T11:23:39.712Z,45.20
2023-01-25T11:26:17.769Z,45.15
2023-01-25T11:28:45.381Z,45.34
2023-01-25T11:31:12.894Z,45.69
2023-01-25T11:33:40.478Z,44.68
2023-01-25T11:36:16.215Z,44.65
2023-01-25T11:39:19.329Z,45.07
2023-01-25T11:42:08.746Z,46.53
2023-01-25T11:44:46.361Z,46.14
2023-01-25T11:47:25.916Z,45.54
2023-01-25T11:50:11.459Z,45.40
2023-01-25T11:53:06.181Z,45.62
2023-01-25T11:55:37.647Z,45.25
2023-01-25T11:58:29.175Z,47.26
2023-01-25T12:01:36.351Z,47.51
2023-01-25T12:04:21.198Z,48.01
2023-01-25T12:06:53.398Z,47.72
2023-01-25T12:09:44.448Z,47.09
2023-01-25T12:12:25.055Z,46.78
2023-01-25T12:14:57.598Z,46.44
2023-01-25T12:17:43.612Z,45.84
2023-01-25T12:20:17.334Z,45.35
2023-01-25T12:23:04.742Z,44.58
2023-01-25T12:26:00.545Z,45.06
2023-01-25T12:28:42.835Z,45.09
2023-01-25T12:31:38.535Z,44.84
2023-01-25T12:34:29.202Z,45.33
2023-01-25T12:36:55.817Z,44.88
2023-01-25T12:39:25.210Z,44.23
2023-01-25T12:41:58.748Z,44.99
2023-01-25T12:44:38.989Z,46.12
2023-01-25T12:47:18.237Z,45.84
2023-01-25T12:49:54.383Z,45.20
2023-01-25T12:52:24.521Z,44.88
2023-01-25T12:54:51.775Z,44.91
2023-01-25T12:57:33.303Z,44.64
2023-01-25T13:00:20.084Z,43.75
2023-01-25T13:03:20.669Z,43.01
2023-01-25T13:06:02.251Z,41.95
2023-01-25T13:08:37.534Z,41.95
2023-01-25T13:11:30.277Z,42.80
2023-01-25T13:14:15.573Z,42.30
2023-01-25T13:16:46.004Z,41.75
2023-01-25T13:19:31.030Z,43.06
2023-01-25T13:21:57.826Z,42.73
2023-01-25T13:24:28.033Z,43.19
2023-01-25T13:26:54.564Z,42.30
2023-01-25T13:29:44.427Z,42.45
2023-01-25T13:32:34.685Z,42.77
2023-01-25T13:35:01.383Z,43.00
2023-01-25T13:37:32.046Z,43.39
2023-01-25T13:40:34.528Z,43.39
2023-01-25T13:43:13.069Z,44.40
2023-01-25T13:45:40.641Z,45.11
2023-01-25T13:48:15.094Z,44.81
2023-01-25T13:50:50.405Z,44.88
2023-01-25T13:53:16.900Z,44.38
2023-01-25T13:55:45.222Z,44.18
2023-01-25T13:58:22.563Z,43.88
2023-01-25T14:00:57.166Z,43.85
2023-01-25T14:03:44.075Z,44.51
2023-01-25T14:06:22.532Z,44.60
2023-01-25T14:08:49.327Z,44.49
2023-01-25T14:11:25.636Z,44.70
2023-01-25T14:14:03.022Z,44.21
2023-01-25T14:16:30.579Z,44.33
2023-01-25T14:19:23.994Z,43.22
2023-01-25T14:21:58.066Z,44.04
2023-01-25T14:24:24.708Z,44.00
2023-01-25T14:26:51.379Z,43.85
2023-01-25T14:29:31.774Z,43.97
2023-01-25T14:31:59.533Z,43.88
2023-01-25T14:34:26.687Z,44.13
2023-01-25T14:37:25.455Z,43.78
2023-01-25T14:39:52.094Z,43.86
2023-01-25T14:42:18.751Z,44.08
2023-01-25T14:44:45.411Z,44.47
2023-01-25T14:47:31.446Z,44.58
2023-01-25T14:50:28.917Z,44.42
2023-01-25T14:52:55.686Z,44.66
2023-01-25T14:55:22.403Z,44.97
2023-01-25T14:57:49.072Z,45.09
2023-01-25T15:00:23.749Z,44.91
2023-01-25T15:03:00.065Z,45.87
2023-01-25T15:05:49.796Z,45.61
2023-01-25T15:08:37.347Z,46.44
2023-01-25T15:11:04.051Z,46.53
2023-01-25T15:13:30.659Z,46.97
2023-01-25T15:15:58.004Z,47.44
2023-01-25T15:18:50.304Z,47.21
2023-01-25T15:21:32.109Z,46.61
2023-01-25T15:23:59.923Z,47.34
2023-01-25T15:26:31.351Z,47.42
2023-01-25T15:28:59.563Z,47.09
2023-01-25T15:31:30.502Z,47.02
2023-01-25T15:33:57.308Z,47.29
2023-01-25T15:36:23.999Z,47.28
2023-01-25T15:38:50.635Z,47.40
2023-01-25T15:41:17.363Z,47.76
2023-01-25T15:43:44.353Z,47.76
2023-01-25T15:46:40.886Z,47.37
2023-01-25T15:49:07.789Z,47.56
2023-01-25T15:51:35.802Z,47.62
2023-01-25T15:54:02.589Z,46.88
2023-01-25T15:56:32.730Z,46.87
2023-01-25T15:59:00.541Z,47.01
2023-01-25T16:01:28.586Z,46.59
2023-01-25T16:03:55.952Z,47.23
2023-01-25T16:06:51.540Z,47.16
2023-01-25T16:09:25.751Z,47.76
2023-01-25T16:11:56.709Z,47.93
2023-01-25T16:14:24.758Z,47.66
2023-01-25T16:16:52.163Z,46.73
2023-01-25T16:19:20.344Z,47.67
2023-01-25T16:21:47.080Z,48.53
2023-01-25T16:24:13.814Z,47.78
2023-01-25T16:26:54.350Z,47.31
2023-01-25T16:29:21.356Z,46.97
2023-01-25T16:31:48.086Z,47.68
2023-01-25T16:34:14.765Z,48.31
2023-01-25T16:36:41.418Z,46.57
2023-01-25T16:39:22.808Z,47.05
2023-01-25T16:41:49.524Z,48.96
2023-01-25T16:44:16.492Z,47.22
2023-01-25T16:46:43.406Z,47.05
2023-01-25T16:49:18.938Z,48.79
2023-01-25T16:51:45.635Z,48.53
2023-01-25T16:54:12.291Z,47.77
2023-01-25T16:56:38.949Z,48.73
2023-01-25T16:59:05.781Z,48.86
2023-01-25T17:01:32.512Z,47.42
2023-01-25T17:03:59.268Z,48.52
2023-01-25T17:06:27.620Z,48.27
2023-01-25T17:09:00.347Z,48.33
2023-01-25T17:11:27.313Z,46.76
2023-01-25T17:13:56.955Z,46.79
2023-01-25T17:16:24.484Z,46.72
2023-01-25T17:18:58.938Z,47.41
2023-01-25T17:21:25.988Z,48.07
2023-01-25T17:23:52.720Z,47.33
2023-01-25T17:26:20.427Z,46.48
2023-01-25T17:28:47.368Z,46.71
2023-01-25T17:31:33.439Z,47.05
2023-01-25T17:34:04.567Z,46.73
2023-01-25T17:36:31.302Z,46.55
2023-01-25T17:39:04.776Z,46.54
2023-01-25T17:41:31.537Z,46.00
2023-01-25T17:43:58.379Z,46.48
2023-01-25T17:46:26.663Z,46.09
2023-01-25T17:48:53.809Z,46.27
2023-01-25T17:51:20.891Z,46.44
2023-01-25T17:53:48.210Z,46.69
2023-01-25T17:56:14.905Z,46.61
2023-01-25T17:58:42.680Z,46.54
2023-01-25T18:01:14.057Z,47.54
2023-01-25T18:03:41.797Z,47.10
2023-01-25T18:06:08.499Z,46.52
2023-01-25T18:08:42.393Z,46.96
2023-01-25T18:11:09.484Z,46.66
2023-01-25T18:13:40.423Z,46.32
2023-01-25T18:16:07.427Z,46.45
2023-01-25T18:18:34.119Z,46.32
2023-01-25T18:21:11.670Z,46.07
2023-01-25T18:23:38.657Z,46.41
2023-01-25T18:26:05.888Z,45.71
2023-01-25T18:28:32.791Z,46.15
2023-01-25T18:31:04.412Z,46.87
2023-01-25T18:33:31.283Z,46.99
2023-01-25T18:35:57.916Z,46.71
2023-01-25T18:38:24.628Z,45.70
2023-01-25T18:40:51.318Z,46.41
2023-01-25T18:43:17.959Z,45.61
2023-01-25T18:45:44.667Z,45.96
2023-01-25T18:48:12.043Z,46.26
2023-01-25T18:50:42.012Z,45.86
2023-01-25T18:53:09.257Z,45.63
2023-01-25T18:55:36.905Z,45.20
2023-01-25T18:58:04.344Z,45.45
2023-01-25T19:00:32.082Z,46.23
2023-01-25T19:02:59.068Z,46.90
2023-01-25T19:05:25.956Z,47.10
2023-01-25T19:07:52.769Z,46.60
2023-01-25T19:10:19.397Z,46.71
2023-01-25T19:12:47.036Z,46.26
2023-01-25T19:15:14.309Z,46.86
2023-01-25T19:17:41.200Z,46.62
2023-01-25T19:20:08.581Z,46.63
2023-01-25T19:22:35.270Z,47.08
2023-01-25T19:25:01.935Z,46.73
2023-01-25T19:27:28.558Z,47.00
2023-01-25T19:29:55.233Z,47.33
2023-01-25T19:32:21.879Z,47.25
2023-01-25T19:34:48.551Z,47.86
2023-01-25T19:37:17.023Z,47.72
2023-01-25T19:39:44.058Z,46.99
2023-01-25T19:42:10.727Z,46.64
2023-01-25T19:44:37.477Z,46.56
2023-01-25T19:47:04.146Z,46.91
2023-01-25T19:49:30.770Z,46.70
2023-01-25T19:51:57.482Z,46.83
2023-01-25T19:54:24.288Z,46.54
2023-01-25T19:56:51.056Z,47.53
2023-01-25T19:59:21.602Z,47.87
2023-01-25T20:01:48.521Z,47.87
2023-01-25T20:04:22.378Z,48.41
2023-01-25T20:06:49.556Z,48.42
2023-01-25T20:09:16.688Z,48.85
2023-01-25T20:11:44.334Z,48.88
2023-01-25T20:14:11.613Z,48.59
2023-01-25T20:16:38.296Z,48.49
2023-01-25T20:19:05.736Z,48.72
2023-01-25T20:21:32.356Z,48.55
2023-01-25T20:24:02.363Z,48.30
2023-01-25T20:26:31.089Z,47.71
2023-01-25T20:28:57.939Z,47.25
2023-01-25T20:31:29.479Z,47.64
2023-01-25T20:33:57.860Z,47.94
2023-01-25T20:36:25.123Z,47.68
2023-01-25T20:38:51.767Z,48.19
2023-01-25T20:41:18.727Z,48.15
2023-01-25T20:43:49.006Z,47.91
2023-01-25T20:46:16.209Z,47.80
2023-01-25T20:48:43.147Z,47.41
2023-01-25T20:51:10.329Z,47.53
2023-01-25T20:53:37.024Z,47.83
2023-01-25T20:56:03.818Z,47.97
2023-01-25T20:58:30.481Z,48.50
2023-01-25T21:00:57.184Z,48.64
2023-01-25T21:03:24.141Z,48.66
2023-01-25T21:05:51.219Z,49.10
2023-01-25T21:08:19.364Z,48.48
2023-01-25T21:10:53.513Z,49.87
2023-01-25T21:13:20.279Z,48.36
2023-01-25T21:16:10.835Z,47.91
2023-01-25T21:18:42.160Z,47.53
2023-01-25T21:21:10.343Z,48.09
2023-01-25T21:23:38.448Z,47.99
2023-01-25T21:26:05.507Z,47.70
2023-01-25T21:28:32.646Z,47.90
2023-01-25T21:31:07.469Z,47.51
2023-01-25T21:33:34.172Z,47.56
2023-01-25T21:36:01.385Z,47.60
2023-01-25T21:38:28.027Z,47.46
2023-01-25T21:41:00.471Z,47.48
2023-01-25T21:43:27.193Z,47.77
2023-01-25T21:45:53.872Z,47.52
2023-01-25T21:48:20.508Z,47.08
2023-01-25T21:50:47.124Z,47.58
2023-01-25T21:53:13.796Z,47.91
2023-01-25T21:55:40.462Z,48.27
2023-01-25T21:58:07.101Z,47.98
2023-01-25T22:00:33.720Z,47.94
2023-01-25T22:03:00.348Z,47.65
2023-01-25T22:05:27.020Z,48.24
2023-01-25T22:07:53.787Z,47.43
2023-01-25T22:10:20.480Z,48.14
2023-01-25T22:12:47.132Z,47.57
2023-01-25T22:15:13.796Z,48.18
2023-01-25T22:17:40.481Z,48.28
2023-01-25T22:20:07.393Z,47.84
2023-01-25T22:22:34.079Z,47.84
2023-01-25T22:25:00.690Z,48.02
2023-01-25T22:27:30.831Z,47.29
2023-01-25T22:29:57.441Z,47.56
2023-01-25T22:32:24.080Z,48.00
2023-01-25T22:34:50.689Z,48.37
2023-01-25T22:37:17.358Z,48.77
2023-01-25T22:39:43.977Z,48.21
2023-01-25T22:42:10.891Z,48.80
2023-01-25T22:44:37.771Z,47.73
2023-01-25T22:47:04.436Z,47.80
2023-01-25T22:49:31.151Z,47.61
2023-01-25T22:51:57.747Z,48.40
2023-01-25T22:54:24.410Z,48.91
2023-01-25T22:56:51.071Z,48.53
2023-01-25T22:59:17.739Z,48.36
2023-01-25T23:01:44.341Z,47.84
2023-01-25T23:04:11.015Z,47.84
2023-01-25T23:06:37.659Z,47.41
2023-01-25T23:09:05.340Z,48.88
2023-01-25T23:11:34.125Z,48.71
2023-01-25T23:14:01.012Z,47.85
2023-01-25T23:16:27.746Z,48.13
2023-01-25T23:18:54.393Z,47.73
2023-01-25T23:21:22.142Z,47.58
2023-01-25T23:23:48.963Z,47.84
2023-01-25T23:26:15.615Z,47.51
2023-01-25T23:28:42.326Z,48.16
2023-01-25T23:31:13.192Z,48.15
2023-01-25T23:33:40.314Z,48.45
2023-01-25T23:36:10.619Z,47.65
2023-01-25T23:38:37.848Z,48.00
2023-01-25T23:41:05.434Z,48.11
2023-01-25T23:43:32.327Z,48.13
2023-01-25T23:45:59.020Z,48.31
2023-01-25T23:48:25.817Z,48.26
2023-01-25T23:50:52.647Z,48.50
2023-01-25T23:53:19.444Z,48.46
2023-01-25T23:56:02.556Z,48.74
2023-01-25T23:58:29.626Z,48.43
